sensor_id;sensor_type;location;lat;lon;timestamp;P1;durP1;ratioP1;P2;durP2;ratioP2
45408;SDS011;31162;51.076;3.784;2023-01-19T00:01:53;12.18;;;10.88;;
45408;SDS011;31162;51.076;3.784;2023-01-19T00:04:19;14.48;;;11.95;;
45408;SDS011;31162;51.076;3.784;2023-01-19T00:06:44;14.38;;;10.20;;
45408;SDS011;31162;51.076;3.784;2023-01-19T00:09:10;18.75;;;10.70;;
45408;SDS011;31162;51.076;3.784;2023-01-19T00:11:36;12.82;;;11.02;;
45408;SDS011;31162;51.076;3.784;2023-01-19T00:14:02;15.48;;;11.40;;
45408;SDS011;31162;51.076;3.784;2023-01-19T00:16:28;12.38;;;10.52;;
45408;SDS011;31162;51.076;3.784;2023-01-19T00:18:54;16.73;;;12.95;;
45408;SDS011;31162;51.076;3.784;2023-01-19T00:21:19;20.38;;;11.65;;
45408;SDS011;31162;51.076;3.784;2023-01-19T00:23:48;16.55;;;11.40;;
45408;SDS011;31162;51.076;3.784;2023-01-19T00:26:16;15.23;;;11.75;;
45408;SDS011;31162;51.076;3.784;2023-01-19T00:28:43;13.15;;;11.15;;
45408;SDS011;31162;51.076;3.784;2023-01-19T00:31:09;12.57;;;10.80;;
45408;SDS011;31162;51.076;3.784;2023-01-19T00:33:35;16.10;;;11.05;;
45408;SDS011;31162;51.076;3.784;2023-01-19T00:36:01;15.23;;;10.88;;
45408;SDS011;31162;51.076;3.784;2023-01-19T00:38:27;15.63;;;11.13;;
45408;SDS011;31162;51.076;3.784;2023-01-19T00:40:53;14.23;;;10.85;;
45408;SDS011;31162;51.076;3.784;2023-01-19T00:43:19;13.68;;;10.98;;
45408;SDS011;31162;51.076;3.784;2023-01-19T00:45:44;13.52;;;11.30;;
45408;SDS011;31162;51.076;3.784;2023-01-19T00:48:10;12.85;;;10.90;;
45408;SDS011;31162;51.076;3.784;2023-01-19T00:50:36;14.02;;;10.82;;
45408;SDS011;31162;51.076;3.784;2023-01-19T00:53:01;20.35;;;11.02;;
45408;SDS011;31162;51.076;3.784;2023-01-19T00:55:28;15.82;;;11.60;;
45408;SDS011;31162;51.076;3.784;2023-01-19T00:57:54;13.10;;;10.48;;
45408;SDS011;31162;51.076;3.784;2023-01-19T01:00:20;19.20;;;10.77;;
45408;SDS011;31162;51.076;3.784;2023-01-19T01:02:48;16.70;;;10.48;;
45408;SDS011;31162;51.076;3.784;2023-01-19T01:05:15;18.48;;;11.25;;
45408;SDS011;31162;51.076;3.784;2023-01-19T01:07:42;16.23;;;10.55;;
45408;SDS011;31162;51.076;3.784;2023-01-19T01:12:43;17.63;;;10.63;;
45408;SDS011;31162;51.076;3.784;2023-01-19T01:15:10;13.55;;;10.20;;
45408;SDS011;31162;51.076;3.784;2023-01-19T01:17:37;15.50;;;11.20;;
45408;SDS011;31162;51.076;3.784;2023-01-19T01:20:10;18.40;;;11.52;;
45408;SDS011;31162;51.076;3.784;2023-01-19T01:22:40;14.10;;;10.98;;
45408;SDS011;31162;51.076;3.784;2023-01-19T01:25:09;15.18;;;10.48;;
45408;SDS011;31162;51.076;3.784;2023-01-19T01:27:46;16.42;;;11.52;;
45408;SDS011;31162;51.076;3.784;2023-01-19T01:36:56;15.23;;;10.65;;
45408;SDS011;31162;51.076;3.784;2023-01-19T01:39:21;17.83;;;10.95;;
45408;SDS011;31162;51.076;3.784;2023-01-19T01:41:47;19.40;;;10.82;;
45408;SDS011;31162;51.076;3.784;2023-01-19T01:52:35;20.63;;;10.68;;
45408;SDS011;31162;51.076;3.784;2023-01-19T01:55:04;17.92;;;11.00;;
45408;SDS011;31162;51.076;3.784;2023-01-19T01:57:33;13.85;;;11.35;;
45408;SDS011;31162;51.076;3.784;2023-01-19T02:00:03;16.02;;;10.60;;
45408;SDS011;31162;51.076;3.784;2023-01-19T02:02:30;14.95;;;11.20;;
45408;SDS011;31162;51.076;3.784;2023-01-19T02:05:34;16.35;;;11.77;;
45408;SDS011;31162;51.076;3.784;2023-01-19T02:08:14;17.58;;;12.07;;
45408;SDS011;31162;51.076;3.784;2023-01-19T02:11:07;17.95;;;12.13;;
45408;SDS011;31162;51.076;3.784;2023-01-19T02:13:51;20.00;;;12.15;;
45408;SDS011;31162;51.076;3.784;2023-01-19T02:16:17;18.58;;;12.05;;
45408;SDS011;31162;51.076;3.784;2023-01-19T02:18:43;21.60;;;14.13;;
45408;SDS011;31162;51.076;3.784;2023-01-19T02:21:17;19.73;;;12.40;;
45408;SDS011;31162;51.076;3.784;2023-01-19T02:23:52;19.50;;;12.95;;
45408;SDS011;31162;51.076;3.784;2023-01-19T02:26:21;17.58;;;12.27;;
45408;SDS011;31162;51.076;3.784;2023-01-19T02:29:03;18.70;;;12.82;;
45408;SDS011;31162;51.076;3.784;2023-01-19T02:31:31;20.42;;;13.45;;
45408;SDS011;31162;51.076;3.784;2023-01-19T02:33:59;22.48;;;13.55;;
45408;SDS011;31162;51.076;3.784;2023-01-19T02:36:31;20.25;;;13.02;;
45408;SDS011;31162;51.076;3.784;2023-01-19T02:39:07;17.77;;;12.27;;
45408;SDS011;31162;51.076;3.784;2023-01-19T02:41:38;15.02;;;12.00;;
45408;SDS011;31162;51.076;3.784;2023-01-19T02:44:08;23.50;;;11.77;;
45408;SDS011;31162;51.076;3.784;2023-01-19T02:46:35;17.55;;;11.90;;
45408;SDS011;31162;51.076;3.784;2023-01-19T02:49:02;20.73;;;12.45;;
45408;SDS011;31162;51.076;3.784;2023-01-19T02:51:28;19.98;;;11.90;;
45408;SDS011;31162;51.076;3.784;2023-01-19T03:06:26;15.43;;;8.95;;
45408;SDS011;31162;51.076;3.784;2023-01-19T03:11:09;16.10;;;9.20;;
45408;SDS011;31162;51.076;3.784;2023-01-19T03:18:40;12.63;;;8.68;;
45408;SDS011;31162;51.076;3.784;2023-01-19T03:21:09;15.65;;;9.20;;
45408;SDS011;31162;51.076;3.784;2023-01-19T03:23:37;15.38;;;9.45;;
45408;SDS011;31162;51.076;3.784;2023-01-19T03:26:07;16.67;;;8.90;;
45408;SDS011;31162;51.076;3.784;2023-01-19T03:28:35;14.27;;;9.02;;
45408;SDS011;31162;51.076;3.784;2023-01-19T03:31:06;14.85;;;9.23;;
45408;SDS011;31162;51.076;3.784;2023-01-19T03:33:54;16.65;;;9.90;;
45408;SDS011;31162;51.076;3.784;2023-01-19T03:36:34;16.53;;;9.90;;
45408;SDS011;31162;51.076;3.784;2023-01-19T03:39:21;16.50;;;9.85;;
45408;SDS011;31162;51.076;3.784;2023-01-19T03:41:49;14.32;;;9.77;;
45408;SDS011;31162;51.076;3.784;2023-01-19T03:44:19;13.73;;;9.70;;
45408;SDS011;31162;51.076;3.784;2023-01-19T03:46:44;17.20;;;10.77;;
45408;SDS011;31162;51.076;3.784;2023-01-19T03:49:12;20.00;;;11.23;;
45408;SDS011;31162;51.076;3.784;2023-01-19T03:51:38;21.70;;;11.27;;
45408;SDS011;31162;51.076;3.784;2023-01-19T03:54:04;22.30;;;12.10;;
45408;SDS011;31162;51.076;3.784;2023-01-19T03:56:31;17.65;;;11.98;;
45408;SDS011;31162;51.076;3.784;2023-01-19T03:58:56;19.80;;;12.00;;
45408;SDS011;31162;51.076;3.784;2023-01-19T04:01:22;17.20;;;11.30;;
45408;SDS011;31162;51.076;3.784;2023-01-19T04:03:49;14.07;;;10.38;;
45408;SDS011;31162;51.076;3.784;2023-01-19T04:06:16;19.48;;;12.57;;
45408;SDS011;31162;51.076;3.784;2023-01-19T04:08:42;15.18;;;10.57;;
45408;SDS011;31162;51.076;3.784;2023-01-19T04:11:08;14.57;;;10.30;;
45408;SDS011;31162;51.076;3.784;2023-01-19T04:13:35;18.63;;;10.40;;
45408;SDS011;31162;51.076;3.784;2023-01-19T04:16:02;16.13;;;9.90;;
45408;SDS011;31162;51.076;3.784;2023-01-19T04:18:29;20.27;;;10.65;;
45408;SDS011;31162;51.076;3.784;2023-01-19T04:21:03;15.40;;;10.48;;
45408;SDS011;31162;51.076;3.784;2023-01-19T04:23:30;16.25;;;9.80;;
45408;SDS011;31162;51.076;3.784;2023-01-19T04:26:00;19.40;;;11.15;;
45408;SDS011;31162;51.076;3.784;2023-01-19T04:28:28;15.65;;;11.05;;
45408;SDS011;31162;51.076;3.784;2023-01-19T04:30:54;17.42;;;12.32;;
45408;SDS011;31162;51.076;3.784;2023-01-19T04:33:20;19.88;;;11.30;;
45408;SDS011;31162;51.076;3.784;2023-01-19T04:35:47;17.48;;;11.38;;
45408;SDS011;31162;51.076;3.784;2023-01-19T04:38:14;25.30;;;13.40;;
45408;SDS011;31162;51.076;3.784;2023-01-19T04:40:40;19.95;;;13.50;;
45408;SDS011;31162;51.076;3.784;2023-01-19T04:43:06;20.65;;;14.02;;
45408;SDS011;31162;51.076;3.784;2023-01-19T04:45:32;20.13;;;13.35;;
45408;SDS011;31162;51.076;3.784;2023-01-19T04:47:58;21.98;;;14.38;;
45408;SDS011;31162;51.076;3.784;2023-01-19T04:50:24;22.42;;;14.60;;
45408;SDS011;31162;51.076;3.784;2023-01-19T04:52:50;25.25;;;14.88;;
45408;SDS011;31162;51.076;3.784;2023-01-19T04:55:15;20.95;;;15.50;;
45408;SDS011;31162;51.076;3.784;2023-01-19T04:57:42;25.38;;;15.30;;
45408;SDS011;31162;51.076;3.784;2023-01-19T05:00:08;28.88;;;16.27;;
45408;SDS011;31162;51.076;3.784;2023-01-19T05:02:34;30.73;;;16.88;;
45408;SDS011;31162;51.076;3.784;2023-01-19T05:05:00;35.92;;;17.45;;
45408;SDS011;31162;51.076;3.784;2023-01-19T05:07:27;30.08;;;16.88;;
45408;SDS011;31162;51.076;3.784;2023-01-19T05:09:52;31.58;;;17.88;;
45408;SDS011;31162;51.076;3.784;2023-01-19T05:12:18;32.35;;;17.98;;
45408;SDS011;31162;51.076;3.784;2023-01-19T05:14:44;24.42;;;16.83;;
45408;SDS011;31162;51.076;3.784;2023-01-19T05:17:10;33.60;;;18.42;;
45408;SDS011;31162;51.076;3.784;2023-01-19T05:19:36;31.30;;;18.13;;
45408;SDS011;31162;51.076;3.784;2023-01-19T05:22:02;30.17;;;17.48;;
45408;SDS011;31162;51.076;3.784;2023-01-19T05:24:29;26.70;;;17.65;;
45408;SDS011;31162;51.076;3.784;2023-01-19T05:26:55;32.58;;;18.83;;
45408;SDS011;31162;51.076;3.784;2023-01-19T05:29:21;29.95;;;17.65;;
45408;SDS011;31162;51.076;3.784;2023-01-19T05:31:47;32.72;;;19.02;;
45408;SDS011;31162;51.076;3.784;2023-01-19T05:34:13;35.38;;;20.00;;
45408;SDS011;31162;51.076;3.784;2023-01-19T05:36:38;33.40;;;18.30;;
45408;SDS011;31162;51.076;3.784;2023-01-19T05:39:05;35.30;;;18.95;;
45408;SDS011;31162;51.076;3.784;2023-01-19T05:41:30;32.15;;;19.17;;
45408;SDS011;31162;51.076;3.784;2023-01-19T05:43:56;37.70;;;19.75;;
45408;SDS011;31162;51.076;3.784;2023-01-19T05:46:22;30.70;;;19.60;;
45408;SDS011;31162;51.076;3.784;2023-01-19T05:48:48;34.33;;;18.95;;
45408;SDS011;31162;51.076;3.784;2023-01-19T05:51:14;32.50;;;20.27;;
45408;SDS011;31162;51.076;3.784;2023-01-19T05:53:40;40.05;;;18.85;;
45408;SDS011;31162;51.076;3.784;2023-01-19T05:56:06;36.95;;;18.98;;
45408;SDS011;31162;51.076;3.784;2023-01-19T05:58:33;30.15;;;19.83;;
45408;SDS011;31162;51.076;3.784;2023-01-19T06:01:07;30.48;;;19.42;;
45408;SDS011;31162;51.076;3.784;2023-01-19T06:03:34;32.88;;;19.45;;
45408;SDS011;31162;51.076;3.784;2023-01-19T06:06:01;34.90;;;19.23;;
45408;SDS011;31162;51.076;3.784;2023-01-19T06:08:28;36.97;;;21.63;;
45408;SDS011;31162;51.076;3.784;2023-01-19T06:10:54;39.28;;;19.85;;
45408;SDS011;31162;51.076;3.784;2023-01-19T06:13:19;37.17;;;20.65;;
45408;SDS011;31162;51.076;3.784;2023-01-19T06:15:45;34.50;;;20.00;;
45408;SDS011;31162;51.076;3.784;2023-01-19T06:18:11;32.10;;;21.50;;
45408;SDS011;31162;51.076;3.784;2023-01-19T06:20:38;32.28;;;20.55;;
45408;SDS011;31162;51.076;3.784;2023-01-19T06:23:05;32.03;;;21.10;;
45408;SDS011;31162;51.076;3.784;2023-01-19T06:25:30;53.72;;;34.80;;
45408;SDS011;31162;51.076;3.784;2023-01-19T06:27:56;34.80;;;21.80;;
45408;SDS011;31162;51.076;3.784;2023-01-19T06:30:22;39.88;;;22.05;;
45408;SDS011;31162;51.076;3.784;2023-01-19T06:32:47;40.53;;;22.25;;
45408;SDS011;31162;51.076;3.784;2023-01-19T06:35:13;38.08;;;20.70;;
45408;SDS011;31162;51.076;3.784;2023-01-19T06:37:39;38.20;;;21.67;;
45408;SDS011;31162;51.076;3.784;2023-01-19T06:40:06;41.83;;;27.52;;
45408;SDS011;31162;51.076;3.784;2023-01-19T06:42:32;33.88;;;20.95;;
45408;SDS011;31162;51.076;3.784;2023-01-19T06:44:58;34.50;;;20.73;;
45408;SDS011;31162;51.076;3.784;2023-01-19T06:47:24;35.63;;;20.48;;
45408;SDS011;31162;51.076;3.784;2023-01-19T06:49:49;41.75;;;20.90;;
45408;SDS011;31162;51.076;3.784;2023-01-19T06:52:15;36.00;;;22.13;;
45408;SDS011;31162;51.076;3.784;2023-01-19T06:54:45;34.30;;;21.17;;
45408;SDS011;31162;51.076;3.784;2023-01-19T06:57:11;37.08;;;21.02;;
45408;SDS011;31162;51.076;3.784;2023-01-19T06:59:38;42.10;;;24.23;;
45408;SDS011;31162;51.076;3.784;2023-01-19T07:02:04;39.28;;;20.33;;
45408;SDS011;31162;51.076;3.784;2023-01-19T07:04:30;38.10;;;21.45;;
45408;SDS011;31162;51.076;3.784;2023-01-19T07:06:56;33.47;;;20.15;;
45408;SDS011;31162;51.076;3.784;2023-01-19T07:09:21;34.38;;;19.92;;
45408;SDS011;31162;51.076;3.784;2023-01-19T07:11:49;37.70;;;19.65;;
45408;SDS011;31162;51.076;3.784;2023-01-19T07:14:15;33.45;;;19.92;;
45408;SDS011;31162;51.076;3.784;2023-01-19T07:16:41;33.58;;;19.48;;
45408;SDS011;31162;51.076;3.784;2023-01-19T07:19:06;36.53;;;21.75;;
45408;SDS011;31162;51.076;3.784;2023-01-19T07:21:34;41.60;;;21.02;;
45408;SDS011;31162;51.076;3.784;2023-01-19T07:24:00;41.97;;;21.35;;
45408;SDS011;31162;51.076;3.784;2023-01-19T07:26:26;37.53;;;21.55;;
45408;SDS011;31162;51.076;3.784;2023-01-19T07:28:52;40.35;;;20.95;;
45408;SDS011;31162;51.076;3.784;2023-01-19T07:31:18;35.47;;;20.40;;
45408;SDS011;31162;51.076;3.784;2023-01-19T07:33:44;112.88;;;70.53;;
45408;SDS011;31162;51.076;3.784;2023-01-19T07:36:10;34.30;;;21.13;;
45408;SDS011;31162;51.076;3.784;2023-01-19T07:38:36;38.90;;;22.38;;
45408;SDS011;31162;51.076;3.784;2023-01-19T07:41:02;36.10;;;21.38;;
45408;SDS011;31162;51.076;3.784;2023-01-19T07:43:29;40.22;;;21.63;;
45408;SDS011;31162;51.076;3.784;2023-01-19T07:45:56;42.05;;;22.48;;
45408;SDS011;31162;51.076;3.784;2023-01-19T07:48:23;34.75;;;20.92;;
45408;SDS011;31162;51.076;3.784;2023-01-19T07:50:49;42.30;;;22.98;;
45408;SDS011;31162;51.076;3.784;2023-01-19T07:53:14;36.63;;;22.80;;
45408;SDS011;31162;51.076;3.784;2023-01-19T07:55:40;35.92;;;22.70;;
45408;SDS011;31162;51.076;3.784;2023-01-19T07:58:06;38.38;;;23.67;;
45408;SDS011;31162;51.076;3.784;2023-01-19T08:00:32;35.45;;;24.10;;
45408;SDS011;31162;51.076;3.784;2023-01-19T08:02:59;36.28;;;24.90;;
45408;SDS011;31162;51.076;3.784;2023-01-19T08:05:26;35.90;;;24.42;;
45408;SDS011;31162;51.076;3.784;2023-01-19T08:07:55;37.17;;;24.35;;
45408;SDS011;31162;51.076;3.784;2023-01-19T08:10:25;39.85;;;26.20;;
45408;SDS011;31162;51.076;3.784;2023-01-19T08:12:52;34.63;;;25.58;;
45408;SDS011;31162;51.076;3.784;2023-01-19T08:15:19;30.30;;;21.92;;
45408;SDS011;31162;51.076;3.784;2023-01-19T08:17:58;34.08;;;22.90;;
45408;SDS011;31162;51.076;3.784;2023-01-19T08:20:25;29.00;;;20.38;;
45408;SDS011;31162;51.076;3.784;2023-01-19T08:22:51;30.30;;;19.67;;
45408;SDS011;31162;51.076;3.784;2023-01-19T08:25:37;27.98;;;18.30;;
45408;SDS011;31162;51.076;3.784;2023-01-19T08:28:08;24.65;;;16.63;;
45408;SDS011;31162;51.076;3.784;2023-01-19T08:30:35;25.65;;;16.48;;
45408;SDS011;31162;51.076;3.784;2023-01-19T08:33:02;27.70;;;16.33;;
45408;SDS011;31162;51.076;3.784;2023-01-19T08:35:32;25.05;;;16.73;;
45408;SDS011;31162;51.076;3.784;2023-01-19T08:38:00;27.20;;;17.20;;
45408;SDS011;31162;51.076;3.784;2023-01-19T08:40:30;26.58;;;16.05;;
45408;SDS011;31162;51.076;3.784;2023-01-19T08:43:00;24.48;;;16.15;;
45408;SDS011;31162;51.076;3.784;2023-01-19T08:45:29;28.38;;;16.38;;
45408;SDS011;31162;51.076;3.784;2023-01-19T08:47:56;22.35;;;14.70;;
45408;SDS011;31162;51.076;3.784;2023-01-19T08:50:23;20.05;;;15.20;;
45408;SDS011;31162;51.076;3.784;2023-01-19T08:52:56;22.17;;;14.40;;
45408;SDS011;31162;51.076;3.784;2023-01-19T08:55:23;21.55;;;13.30;;
45408;SDS011;31162;51.076;3.784;2023-01-19T08:57:52;18.75;;;13.10;;
45408;SDS011;31162;51.076;3.784;2023-01-19T09:00:19;17.08;;;11.85;;
45408;SDS011;31162;51.076;3.784;2023-01-19T09:02:46;17.45;;;12.27;;
45408;SDS011;31162;51.076;3.784;2023-01-19T09:05:12;21.15;;;12.00;;
45408;SDS011;31162;51.076;3.784;2023-01-19T09:07:38;23.42;;;11.18;;
45408;SDS011;31162;51.076;3.784;2023-01-19T09:10:04;29.55;;;11.15;;
45408;SDS011;31162;51.076;3.784;2023-01-19T09:12:30;37.25;;;12.02;;
45408;SDS011;31162;51.076;3.784;2023-01-19T09:14:56;41.30;;;14.23;;
45408;SDS011;31162;51.076;3.784;2023-01-19T09:17:22;51.83;;;15.38;;
45408;SDS011;31162;51.076;3.784;2023-01-19T09:19:47;50.60;;;16.40;;
45408;SDS011;31162;51.076;3.784;2023-01-19T09:22:13;35.42;;;14.18;;
45408;SDS011;31162;51.076;3.784;2023-01-19T09:24:39;26.30;;;14.93;;
45408;SDS011;31162;51.076;3.784;2023-01-19T09:27:05;24.08;;;13.90;;
45408;SDS011;31162;51.076;3.784;2023-01-19T09:29:30;20.67;;;12.82;;
45408;SDS011;31162;51.076;3.784;2023-01-19T09:31:56;22.63;;;14.65;;
45408;SDS011;31162;51.076;3.784;2023-01-19T09:34:22;19.58;;;12.35;;
45408;SDS011;31162;51.076;3.784;2023-01-19T09:36:50;21.05;;;12.70;;
45408;SDS011;31162;51.076;3.784;2023-01-19T09:39:16;18.90;;;12.60;;
45408;SDS011;31162;51.076;3.784;2023-01-19T09:41:44;25.15;;;13.80;;
45408;SDS011;31162;51.076;3.784;2023-01-19T09:44:17;21.77;;;13.05;;
45408;SDS011;31162;51.076;3.784;2023-01-19T09:46:50;17.92;;;12.63;;
45408;SDS011;31162;51.076;3.784;2023-01-19T09:49:33;21.30;;;13.65;;
45408;SDS011;31162;51.076;3.784;2023-01-19T09:52:07;23.63;;;12.77;;
45408;SDS011;31162;51.076;3.784;2023-01-19T09:57:11;21.33;;;13.60;;
45408;SDS011;31162;51.076;3.784;2023-01-19T09:59:38;13.67;;;10.47;;
45408;SDS011;31162;51.076;3.784;2023-01-19T10:18:42;27.92;;;15.50;;
45408;SDS011;31162;51.076;3.784;2023-01-19T10:21:25;22.77;;;15.00;;
45408;SDS011;31162;51.076;3.784;2023-01-19T10:26:50;24.63;;;15.63;;
45408;SDS011;31162;51.076;3.784;2023-01-19T10:29:27;27.58;;;15.57;;
45408;SDS011;31162;51.076;3.784;2023-01-19T10:32:02;27.08;;;16.45;;
45408;SDS011;31162;51.076;3.784;2023-01-19T10:34:32;30.45;;;16.35;;
45408;SDS011;31162;51.076;3.784;2023-01-19T10:37:01;26.40;;;15.45;;
45408;SDS011;31162;51.076;3.784;2023-01-19T10:39:41;25.27;;;16.45;;
45408;SDS011;31162;51.076;3.784;2023-01-19T10:42:09;27.27;;;16.70;;
45408;SDS011;31162;51.076;3.784;2023-01-19T10:44:39;23.58;;;16.00;;
45408;SDS011;31162;51.076;3.784;2023-01-19T10:47:10;29.52;;;16.63;;
45408;SDS011;31162;51.076;3.784;2023-01-19T10:49:40;24.50;;;16.00;;
45408;SDS011;31162;51.076;3.784;2023-01-19T10:52:07;26.75;;;15.68;;
45408;SDS011;31162;51.076;3.784;2023-01-19T10:54:58;25.80;;;15.57;;
45408;SDS011;31162;51.076;3.784;2023-01-19T10:57:30;23.73;;;15.48;;
45408;SDS011;31162;51.076;3.784;2023-01-19T11:00:00;26.10;;;15.77;;
45408;SDS011;31162;51.076;3.784;2023-01-19T11:02:27;22.42;;;15.60;;
45408;SDS011;31162;51.076;3.784;2023-01-19T11:04:58;21.55;;;16.17;;
45408;SDS011;31162;51.076;3.784;2023-01-19T11:13:04;26.50;;;16.17;;
45408;SDS011;31162;51.076;3.784;2023-01-19T11:15:41;25.83;;;17.10;;
45408;SDS011;31162;51.076;3.784;2023-01-19T11:18:17;26.20;;;17.33;;
45408;SDS011;31162;51.076;3.784;2023-01-19T11:20:49;23.60;;;18.10;;
45408;SDS011;31162;51.076;3.784;2023-01-19T11:25:47;27.40;;;17.92;;
45408;SDS011;31162;51.076;3.784;2023-01-19T11:28:19;27.70;;;18.48;;
45408;SDS011;31162;51.076;3.784;2023-01-19T11:30:57;28.92;;;18.45;;
45408;SDS011;31162;51.076;3.784;2023-01-19T11:33:25;25.40;;;19.13;;
45408;SDS011;31162;51.076;3.784;2023-01-19T11:36:02;24.83;;;18.52;;
45408;SDS011;31162;51.076;3.784;2023-01-19T11:38:30;25.90;;;18.80;;
45408;SDS011;31162;51.076;3.784;2023-01-19T11:40:56;23.58;;;17.80;;
45408;SDS011;31162;51.076;3.784;2023-01-19T11:43:26;22.05;;;16.92;;
45408;SDS011;31162;51.076;3.784;2023-01-19T11:45:53;24.98;;;16.20;;
45408;SDS011;31162;51.076;3.784;2023-01-19T11:48:44;24.63;;;15.73;;
45408;SDS011;31162;51.076;3.784;2023-01-19T11:51:15;19.88;;;14.82;;
45408;SDS011;31162;51.076;3.784;2023-01-19T11:53:45;19.42;;;14.70;;
45408;SDS011;31162;51.076;3.784;2023-01-19T11:58:42;20.27;;;14.45;;
45408;SDS011;31162;51.076;3.784;2023-01-19T12:03:59;22.33;;;16.92;;
45408;SDS011;31162;51.076;3.784;2023-01-19T12:06:40;18.85;;;13.95;;
45408;SDS011;31162;51.076;3.784;2023-01-19T12:09:14;20.02;;;14.15;;
45408;SDS011;31162;51.076;3.784;2023-01-19T12:11:54;15.02;;;13.43;;
45408;SDS011;31162;51.076;3.784;2023-01-19T12:14:27;14.73;;;12.70;;
45408;SDS011;31162;51.076;3.784;2023-01-19T12:17:02;13.95;;;12.40;;
45408;SDS011;31162;51.076;3.784;2023-01-19T12:19:43;19.08;;;12.57;;
45408;SDS011;31162;51.076;3.784;2023-01-19T12:22:14;15.23;;;12.77;;
45408;SDS011;31162;51.076;3.784;2023-01-19T12:27:40;16.92;;;13.23;;
45408;SDS011;31162;51.076;3.784;2023-01-19T12:30:19;17.77;;;14.75;;
45408;SDS011;31162;51.076;3.784;2023-01-19T12:36:32;186.75;;;47.25;;
45408;SDS011;31162;51.076;3.784;2023-01-19T12:38:54;68.55;;;22.45;;
45408;SDS011;31162;51.076;3.784;2023-01-19T12:41:37;31.38;;;17.63;;
45408;SDS011;31162;51.076;3.784;2023-01-19T12:46:42;22.70;;;16.52;;
45408;SDS011;31162;51.076;3.784;2023-01-19T12:54:48;31.33;;;19.55;;
45408;SDS011;31162;51.076;3.784;2023-01-19T12:57:30;28.80;;;17.60;;
45408;SDS011;31162;51.076;3.784;2023-01-19T13:00:33;21.92;;;16.08;;
45408;SDS011;31162;51.076;3.784;2023-01-19T13:05:47;21.20;;;16.08;;
45408;SDS011;31162;51.076;3.784;2023-01-19T13:08:17;17.95;;;15.73;;
45408;SDS011;31162;51.076;3.784;2023-01-19T13:13:37;22.03;;;16.03;;
45408;SDS011;31162;51.076;3.784;2023-01-19T13:18:47;23.00;;;16.67;;
45408;SDS011;31162;51.076;3.784;2023-01-19T13:24:05;24.33;;;16.75;;
45408;SDS011;31162;51.076;3.784;2023-01-19T13:29:04;21.05;;;16.60;;
45408;SDS011;31162;51.076;3.784;2023-01-19T13:31:34;27.70;;;17.52;;
45408;SDS011;31162;51.076;3.784;2023-01-19T13:34:02;22.17;;;16.77;;
45408;SDS011;31162;51.076;3.784;2023-01-19T13:36:30;20.38;;;16.05;;
45408;SDS011;31162;51.076;3.784;2023-01-19T13:39:01;20.73;;;15.75;;
45408;SDS011;31162;51.076;3.784;2023-01-19T13:41:30;20.25;;;15.82;;
45408;SDS011;31162;51.076;3.784;2023-01-19T13:44:01;22.33;;;16.20;;
45408;SDS011;31162;51.076;3.784;2023-01-19T13:46:29;22.05;;;15.45;;
45408;SDS011;31162;51.076;3.784;2023-01-19T13:48:56;20.75;;;15.75;;
45408;SDS011;31162;51.076;3.784;2023-01-19T13:51:26;20.52;;;14.88;;
45408;SDS011;31162;51.076;3.784;2023-01-19T13:53:58;22.90;;;15.48;;
45408;SDS011;31162;51.076;3.784;2023-01-19T13:56:29;21.67;;;15.38;;
45408;SDS011;31162;51.076;3.784;2023-01-19T13:59:03;18.33;;;14.32;;
45408;SDS011;31162;51.076;3.784;2023-01-19T14:01:34;23.90;;;16.77;;
45408;SDS011;31162;51.076;3.784;2023-01-19T14:04:01;21.08;;;15.55;;
45408;SDS011;31162;51.076;3.784;2023-01-19T14:09:05;21.73;;;15.60;;
45408;SDS011;31162;51.076;3.784;2023-01-19T14:11:46;21.20;;;16.00;;
45408;SDS011;31162;51.076;3.784;2023-01-19T14:14:31;23.40;;;16.15;;
45408;SDS011;31162;51.076;3.784;2023-01-19T14:16:57;21.05;;;16.08;;
45408;SDS011;31162;51.076;3.784;2023-01-19T14:19:23;20.50;;;15.38;;
45408;SDS011;31162;51.076;3.784;2023-01-19T14:22:02;24.10;;;16.52;;
45408;SDS011;31162;51.076;3.784;2023-01-19T14:24:29;22.70;;;15.52;;
45408;SDS011;31162;51.076;3.784;2023-01-19T14:27:07;23.55;;;16.48;;
45408;SDS011;31162;51.076;3.784;2023-01-19T14:29:43;23.17;;;16.83;;
45408;SDS011;31162;51.076;3.784;2023-01-19T14:32:12;22.02;;;16.42;;
45408;SDS011;31162;51.076;3.784;2023-01-19T14:34:44;28.48;;;16.65;;
45408;SDS011;31162;51.076;3.784;2023-01-19T14:37:22;22.35;;;16.25;;
45408;SDS011;31162;51.076;3.784;2023-01-19T14:45:16;21.73;;;16.70;;
45408;SDS011;31162;51.076;3.784;2023-01-19T14:47:44;23.60;;;17.00;;
45408;SDS011;31162;51.076;3.784;2023-01-19T14:50:22;24.98;;;15.32;;
45408;SDS011;31162;51.076;3.784;2023-01-19T14:53:03;18.85;;;15.30;;
45408;SDS011;31162;51.076;3.784;2023-01-19T14:55:45;23.10;;;14.70;;
45408;SDS011;31162;51.076;3.784;2023-01-19T14:58:14;19.77;;;14.35;;
45408;SDS011;31162;51.076;3.784;2023-01-19T15:00:41;20.20;;;13.90;;
45408;SDS011;31162;51.076;3.784;2023-01-19T15:03:08;18.70;;;13.80;;
45408;SDS011;31162;51.076;3.784;2023-01-19T15:05:34;21.10;;;15.82;;
45408;SDS011;31162;51.076;3.784;2023-01-19T15:08:02;20.48;;;14.45;;
45408;SDS011;31162;51.076;3.784;2023-01-19T15:10:28;23.38;;;16.08;;
45408;SDS011;31162;51.076;3.784;2023-01-19T15:12:54;22.35;;;15.25;;
45408;SDS011;31162;51.076;3.784;2023-01-19T15:17:58;21.98;;;15.45;;
45408;SDS011;31162;51.076;3.784;2023-01-19T15:20:26;21.40;;;15.20;;
45408;SDS011;31162;51.076;3.784;2023-01-19T15:22:53;17.67;;;14.70;;
45408;SDS011;31162;51.076;3.784;2023-01-19T15:25:19;20.20;;;14.70;;
45408;SDS011;31162;51.076;3.784;2023-01-19T15:27:50;20.85;;;15.02;;
45408;SDS011;31162;51.076;3.784;2023-01-19T15:30:17;20.52;;;15.98;;
45408;SDS011;31162;51.076;3.784;2023-01-19T15:32:46;20.92;;;15.70;;
45408;SDS011;31162;51.076;3.784;2023-01-19T15:35:15;26.83;;;16.83;;
45408;SDS011;31162;51.076;3.784;2023-01-19T15:37:43;21.65;;;16.88;;
45408;SDS011;31162;51.076;3.784;2023-01-19T15:40:09;19.35;;;16.58;;
45408;SDS011;31162;51.076;3.784;2023-01-19T15:42:36;23.20;;;17.73;;
45408;SDS011;31162;51.076;3.784;2023-01-19T15:45:02;24.42;;;17.80;;
45408;SDS011;31162;51.076;3.784;2023-01-19T15:47:39;21.90;;;16.27;;
45408;SDS011;31162;51.076;3.784;2023-01-19T15:50:05;23.00;;;15.93;;
45408;SDS011;31162;51.076;3.784;2023-01-19T15:52:31;21.55;;;15.73;;
45408;SDS011;31162;51.076;3.784;2023-01-19T15:54:56;27.17;;;17.35;;
45408;SDS011;31162;51.076;3.784;2023-01-19T15:57:22;24.45;;;17.25;;
45408;SDS011;31162;51.076;3.784;2023-01-19T15:59:47;24.10;;;17.67;;
45408;SDS011;31162;51.076;3.784;2023-01-19T16:02:15;26.23;;;16.58;;
45408;SDS011;31162;51.076;3.784;2023-01-19T16:04:41;23.33;;;16.25;;
45408;SDS011;31162;51.076;3.784;2023-01-19T16:07:06;23.13;;;16.50;;
45408;SDS011;31162;51.076;3.784;2023-01-19T16:09:32;23.75;;;16.05;;
45408;SDS011;31162;51.076;3.784;2023-01-19T16:11:57;23.05;;;16.60;;
45408;SDS011;31162;51.076;3.784;2023-01-19T16:14:23;23.20;;;17.23;;
45408;SDS011;31162;51.076;3.784;2023-01-19T16:16:49;25.15;;;17.13;;
45408;SDS011;31162;51.076;3.784;2023-01-19T16:19:15;26.35;;;17.10;;
45408;SDS011;31162;51.076;3.784;2023-01-19T16:21:55;24.55;;;18.35;;
45408;SDS011;31162;51.076;3.784;2023-01-19T16:24:21;28.13;;;18.20;;